sensor_id;sensor_type;location;lat;lon;timestamp;P1;durP1;ratioP1;P2;durP2;ratioP2
20138;SDS011;10230;51.502;10.800;2022-09-03T00:01:45;2.35;;;0.70;;
20138;SDS011;10230;51.502;10.800;2022-09-03T00:04:24;3.25;;;0.77;;
20138;SDS011;10230;51.502;10.800;2022-09-03T00:06:59;2.35;;;1.55;;
20138;SDS011;10230;51.502;10.800;2022-09-03T00:09:38;2.40;;;1.30;;
20138;SDS011;10230;51.502;10.800;2022-09-03T00:12:12;1.38;;;0.88;;
20138;SDS011;10230;51.502;10.800;2022-09-03T00:14:49;1.23;;;0.80;;
20138;SDS011;10230;51.502;10.800;2022-09-03T00:17:30;1.63;;;0.85;;
20138;SDS011;10230;51.502;10.800;2022-09-03T00:20:06;2.47;;;0.93;;
20138;SDS011;10230;51.502;10.800;2022-09-03T00:22:34;1.40;;;0.80;;
20138;SDS011;10230;51.502;10.800;2022-09-03T00:25:03;1.87;;;0.97;;
20138;SDS011;10230;51.502;10.800;2022-09-03T00:27:31;2.33;;;0.97;;
20138;SDS011;10230;51.502;10.800;2022-09-03T00:30:31;3.87;;;1.40;;
20138;SDS011;10230;51.502;10.800;2022-09-03T00:33:00;4.17;;;1.07;;
20138;SDS011;10230;51.502;10.800;2022-09-03T00:35:32;0.80;;;0.80;;
20138;SDS011;10230;51.502;10.800;2022-09-03T00:38:00;0.77;;;0.70;;
20138;SDS011;10230;51.502;10.800;2022-09-03T00:43:11;2.07;;;1.03;;
20138;SDS011;10230;51.502;10.800;2022-09-03T00:55:41;0.85;;;0.65;;
20138;SDS011;10230;51.502;10.800;2022-09-03T00:58:32;3.07;;;1.03;;
20138;SDS011;10230;51.502;10.800;2022-09-03T01:06:18;1.08;;;0.77;;
20138;SDS011;10230;51.502;10.800;2022-09-03T01:08:53;1.70;;;0.90;;
20138;SDS011;10230;51.502;10.800;2022-09-03T01:17:21;2.63;;;1.10;;
20138;SDS011;10230;51.502;10.800;2022-09-03T01:20:09;1.13;;;0.80;;
20138;SDS011;10230;51.502;10.800;2022-09-03T01:34:09;1.87;;;0.80;;
20138;SDS011;10230;51.502;10.800;2022-09-03T01:42:13;1.80;;;0.73;;
20138;SDS011;10230;51.502;10.800;2022-09-03T01:50:38;1.27;;;0.97;;
20138;SDS011;10230;51.502;10.800;2022-09-03T01:59:08;1.93;;;0.70;;
20138;SDS011;10230;51.502;10.800;2022-09-03T02:02:30;1.17;;;0.70;;
20138;SDS011;10230;51.502;10.800;2022-09-03T02:05:04;0.90;;;0.80;;
20138;SDS011;10230;51.502;10.800;2022-09-03T02:07:40;0.63;;;0.63;;
20138;SDS011;10230;51.502;10.800;2022-09-03T02:10:13;1.60;;;0.93;;
20138;SDS011;10230;51.502;10.800;2022-09-03T02:12:48;1.37;;;1.00;;
20138;SDS011;10230;51.502;10.800;2022-09-03T02:15:18;3.33;;;1.13;;
20138;SDS011;10230;51.502;10.800;2022-09-03T02:17:46;3.90;;;0.80;;
20138;SDS011;10230;51.502;10.800;2022-09-03T02:20:19;3.37;;;0.80;;
20138;SDS011;10230;51.502;10.800;2022-09-03T02:22:47;2.47;;;0.90;;
20138;SDS011;10230;51.502;10.800;2022-09-03T02:25:14;1.83;;;1.25;;
20138;SDS011;10230;51.502;10.800;2022-09-03T02:27:41;2.97;;;1.07;;
20138;SDS011;10230;51.502;10.800;2022-09-03T02:30:08;1.83;;;0.83;;
20138;SDS011;10230;51.502;10.800;2022-09-03T02:32:34;1.53;;;1.00;;
20138;SDS011;10230;51.502;10.800;2022-09-03T02:35:00;2.23;;;1.13;;
20138;SDS011;10230;51.502;10.800;2022-09-03T02:37:26;2.43;;;1.00;;
20138;SDS011;10230;51.502;10.800;2022-09-03T02:39:51;1.73;;;0.80;;
20138;SDS011;10230;51.502;10.800;2022-09-03T02:42:17;1.47;;;1.10;;
20138;SDS011;10230;51.502;10.800;2022-09-03T02:44:46;1.20;;;0.80;;
20138;SDS011;10230;51.502;10.800;2022-09-03T02:47:16;1.13;;;0.90;;
20138;SDS011;10230;51.502;10.800;2022-09-03T02:49:44;1.17;;;0.60;;
20138;SDS011;10230;51.502;10.800;2022-09-03T02:52:13;2.13;;;0.97;;
20138;SDS011;10230;51.502;10.800;2022-09-03T02:54:40;2.60;;;0.82;;
20138;SDS011;10230;51.502;10.800;2022-09-03T02:57:06;2.77;;;1.00;;
20138;SDS011;10230;51.502;10.800;2022-09-03T02:59:34;3.70;;;0.90;;
20138;SDS011;10230;51.502;10.800;2022-09-03T03:02:01;1.60;;;1.00;;
20138;SDS011;10230;51.502;10.800;2022-09-03T03:04:31;2.13;;;1.00;;
20138;SDS011;10230;51.502;10.800;2022-09-03T03:06:57;3.03;;;1.13;;
20138;SDS011;10230;51.502;10.800;2022-09-03T03:09:23;1.07;;;0.80;;
20138;SDS011;10230;51.502;10.800;2022-09-03T03:11:49;2.50;;;0.83;;
20138;SDS011;10230;51.502;10.800;2022-09-03T03:14:18;1.30;;;0.90;;
20138;SDS011;10230;51.502;10.800;2022-09-03T03:16:44;2.83;;;0.77;;
20138;SDS011;10230;51.502;10.800;2022-09-03T03:19:09;1.83;;;0.80;;
20138;SDS011;10230;51.502;10.800;2022-09-03T03:21:35;2.23;;;1.10;;
20138;SDS011;10230;51.502;10.800;2022-09-03T03:24:01;2.77;;;1.03;;
20138;SDS011;10230;51.502;10.800;2022-09-03T03:26:27;3.17;;;1.00;;
20138;SDS011;10230;51.502;10.800;2022-09-03T03:28:57;1.63;;;0.93;;
20138;SDS011;10230;51.502;10.800;2022-09-03T03:31:25;1.50;;;0.90;;
20138;SDS011;10230;51.502;10.800;2022-09-03T03:33:55;1.77;;;1.10;;
20138;SDS011;10230;51.502;10.800;2022-09-03T03:36:22;1.63;;;0.90;;
20138;SDS011;10230;51.502;10.800;2022-09-03T03:38:52;2.00;;;1.27;;
20138;SDS011;10230;51.502;10.800;2022-09-03T03:41:19;2.33;;;1.10;;
20138;SDS011;10230;51.502;10.800;2022-09-03T03:43:46;2.67;;;1.47;;
20138;SDS011;10230;51.502;10.800;2022-09-03T03:46:16;3.87;;;1.00;;
20138;SDS011;10230;51.502;10.800;2022-09-03T03:48:41;1.70;;;1.10;;
20138;SDS011;10230;51.502;10.800;2022-09-03T03:51:08;2.77;;;1.17;;
20138;SDS011;10230;51.502;10.800;2022-09-03T03:53:35;2.80;;;1.20;;
20138;SDS011;10230;51.502;10.800;2022-09-03T03:56:03;3.30;;;1.33;;
20138;SDS011;10230;51.502;10.800;2022-09-03T03:58:31;2.07;;;0.90;;
20138;SDS011;10230;51.502;10.800;2022-09-03T04:01:08;1.80;;;1.40;;
20138;SDS011;10230;51.502;10.800;2022-09-03T04:03:35;2.43;;;1.63;;
20138;SDS011;10230;51.502;10.800;2022-09-03T04:06:02;5.67;;;1.97;;
20138;SDS011;10230;51.502;10.800;2022-09-03T04:08:29;1.63;;;1.00;;
20138;SDS011;10230;51.502;10.800;2022-09-03T04:10:58;1.50;;;1.00;;
20138;SDS011;10230;51.502;10.800;2022-09-03T04:13:35;3.20;;;1.17;;
20138;SDS011;10230;51.502;10.800;2022-09-03T04:16:06;2.67;;;1.30;;
20138;SDS011;10230;51.502;10.800;2022-09-03T04:18:34;2.90;;;1.30;;
20138;SDS011;10230;51.502;10.800;2022-09-03T04:21:01;1.70;;;1.10;;
20138;SDS011;10230;51.502;10.800;2022-09-03T04:23:32;2.60;;;1.50;;
20138;SDS011;10230;51.502;10.800;2022-09-03T04:25:59;2.93;;;1.40;;
20138;SDS011;10230;51.502;10.800;2022-09-03T04:28:25;3.57;;;1.50;;
20138;SDS011;10230;51.502;10.800;2022-09-03T04:30:51;1.50;;;1.10;;
20138;SDS011;10230;51.502;10.800;2022-09-03T04:33:17;2.63;;;1.50;;
20138;SDS011;10230;51.502;10.800;2022-09-03T04:35:43;2.10;;;1.33;;
20138;SDS011;10230;51.502;10.800;2022-09-03T04:38:09;2.67;;;1.20;;
20138;SDS011;10230;51.502;10.800;2022-09-03T04:40:35;2.47;;;1.40;;
20138;SDS011;10230;51.502;10.800;2022-09-03T04:43:02;2.00;;;1.20;;
20138;SDS011;10230;51.502;10.800;2022-09-03T04:45:28;3.07;;;1.60;;
20138;SDS011;10230;51.502;10.800;2022-09-03T04:47:55;2.20;;;1.50;;
20138;SDS011;10230;51.502;10.800;2022-09-03T04:50:25;3.13;;;1.30;;
20138;SDS011;10230;51.502;10.800;2022-09-03T04:52:54;1.73;;;1.30;;
20138;SDS011;10230;51.502;10.800;2022-09-03T04:55:25;3.43;;;1.40;;
20138;SDS011;10230;51.502;10.800;2022-09-03T04:57:50;3.03;;;1.50;;
20138;SDS011;10230;51.502;10.800;2022-09-03T05:00:16;1.90;;;1.40;;
20138;SDS011;10230;51.502;10.800;2022-09-03T05:02:43;2.83;;;1.50;;
20138;SDS011;10230;51.502;10.800;2022-09-03T05:05:11;4.40;;;2.10;;
20138;SDS011;10230;51.502;10.800;2022-09-03T05:07:37;2.92;;;1.80;;
20138;SDS011;10230;51.502;10.800;2022-09-03T05:10:06;2.80;;;1.90;;
20138;SDS011;10230;51.502;10.800;2022-09-03T05:12:33;2.90;;;1.80;;
20138;SDS011;10230;51.502;10.800;2022-09-03T05:14:59;1.90;;;1.50;;
20138;SDS011;10230;51.502;10.800;2022-09-03T05:17:26;2.63;;;1.77;;
20138;SDS011;10230;51.502;10.800;2022-09-03T05:19:51;6.30;;;1.77;;
20138;SDS011;10230;51.502;10.800;2022-09-03T05:22:18;3.67;;;2.07;;
20138;SDS011;10230;51.502;10.800;2022-09-03T05:24:47;7.07;;;3.50;;
20138;SDS011;10230;51.502;10.800;2022-09-03T05:27:13;8.10;;;5.23;;
20138;SDS011;10230;51.502;10.800;2022-09-03T05:29:42;8.67;;;6.00;;
20138;SDS011;10230;51.502;10.800;2022-09-03T05:32:08;7.00;;;5.10;;
20138;SDS011;10230;51.502;10.800;2022-09-03T05:34:34;6.20;;;3.13;;
20138;SDS011;10230;51.502;10.800;2022-09-03T05:37:00;2.90;;;1.70;;
20138;SDS011;10230;51.502;10.800;2022-09-03T05:39:25;2.80;;;1.80;;
20138;SDS011;10230;51.502;10.800;2022-09-03T05:41:51;3.00;;;1.80;;
20138;SDS011;10230;51.502;10.800;2022-09-03T05:44:17;1.93;;;1.30;;
20138;SDS011;10230;51.502;10.800;2022-09-03T05:46:45;2.17;;;1.25;;
20138;SDS011;10230;51.502;10.800;2022-09-03T05:49:11;4.07;;;1.95;;
20138;SDS011;10230;51.502;10.800;2022-09-03T05:51:37;3.03;;;1.80;;
20138;SDS011;10230;51.502;10.800;2022-09-03T05:54:06;3.55;;;1.60;;
20138;SDS011;10230;51.502;10.800;2022-09-03T05:56:33;5.18;;;2.00;;
20138;SDS011;10230;51.502;10.800;2022-09-03T05:59:01;2.65;;;1.30;;
20138;SDS011;10230;51.502;10.800;2022-09-03T06:01:30;3.08;;;1.40;;
20138;SDS011;10230;51.502;10.800;2022-09-03T06:03:58;2.90;;;1.33;;
20138;SDS011;10230;51.502;10.800;2022-09-03T06:06:26;1.60;;;1.38;;
20138;SDS011;10230;51.502;10.800;2022-09-03T06:08:53;4.75;;;1.35;;
20138;SDS011;10230;51.502;10.800;2022-09-03T06:11:22;2.58;;;2.17;;
20138;SDS011;10230;51.502;10.800;2022-09-03T06:13:55;2.85;;;1.50;;
20138;SDS011;10230;51.502;10.800;2022-09-03T06:16:22;2.40;;;1.65;;
20138;SDS011;10230;51.502;10.800;2022-09-03T06:18:48;2.53;;;1.13;;
20138;SDS011;10230;51.502;10.800;2022-09-03T06:21:15;2.47;;;1.17;;
20138;SDS011;10230;51.502;10.800;2022-09-03T06:23:41;3.92;;;1.20;;
20138;SDS011;10230;51.502;10.800;2022-09-03T06:26:07;2.30;;;1.40;;
20138;SDS011;10230;51.502;10.800;2022-09-03T06:28:36;1.63;;;1.10;;
20138;SDS011;10230;51.502;10.800;2022-09-03T06:31:04;2.28;;;1.40;;
20138;SDS011;10230;51.502;10.800;2022-09-03T06:33:32;2.07;;;1.10;;
20138;SDS011;10230;51.502;10.800;2022-09-03T06:36:01;1.48;;;1.10;;
20138;SDS011;10230;51.502;10.800;2022-09-03T06:38:29;2.83;;;1.20;;
20138;SDS011;10230;51.502;10.800;2022-09-03T06:40:59;1.60;;;1.30;;
20138;SDS011;10230;51.502;10.800;2022-09-03T06:43:28;3.08;;;1.27;;
20138;SDS011;10230;51.502;10.800;2022-09-03T06:45:59;1.98;;;1.10;;
20138;SDS011;10230;51.502;10.800;2022-09-03T06:48:26;3.95;;;1.30;;
20138;SDS011;10230;51.502;10.800;2022-09-03T06:50:57;3.30;;;1.42;;
20138;SDS011;10230;51.502;10.800;2022-09-03T06:53:26;2.30;;;1.35;;
20138;SDS011;10230;51.502;10.800;2022-09-03T06:55:56;2.05;;;1.10;;
20138;SDS011;10230;51.502;10.800;2022-09-03T06:58:23;2.10;;;1.00;;
20138;SDS011;10230;51.502;10.800;2022-09-03T07:00:50;5.53;;;1.35;;
20138;SDS011;10230;51.502;10.800;2022-09-03T07:03:19;2.15;;;1.05;;
20138;SDS011;10230;51.502;10.800;2022-09-03T07:05:45;4.90;;;1.20;;
20138;SDS011;10230;51.502;10.800;2022-09-03T07:08:11;2.78;;;1.10;;
20138;SDS011;10230;51.502;10.800;2022-09-03T07:10:37;5.88;;;1.63;;
20138;SDS011;10230;51.502;10.800;2022-09-03T07:13:04;4.38;;;1.08;;
20138;SDS011;10230;51.502;10.800;2022-09-03T07:15:33;2.25;;;1.00;;
20138;SDS011;10230;51.502;10.800;2022-09-03T07:17:59;3.90;;;1.05;;
20138;SDS011;10230;51.502;10.800;2022-09-03T07:20:25;3.65;;;1.30;;
20138;SDS011;10230;51.502;10.800;2022-09-03T07:22:54;3.35;;;1.20;;
20138;SDS011;10230;51.502;10.800;2022-09-03T07:25:21;2.53;;;1.40;;
20138;SDS011;10230;51.502;10.800;2022-09-03T07:27:48;1.92;;;1.20;;
20138;SDS011;10230;51.502;10.800;2022-09-03T07:30:15;4.20;;;1.42;;
20138;SDS011;10230;51.502;10.800;2022-09-03T07:32:42;3.88;;;1.38;;
20138;SDS011;10230;51.502;10.800;2022-09-03T07:35:10;2.25;;;1.30;;
20138;SDS011;10230;51.502;10.800;2022-09-03T07:37:39;4.03;;;1.20;;
20138;SDS011;10230;51.502;10.800;2022-09-03T07:40:05;3.75;;;1.30;;
20138;SDS011;10230;51.502;10.800;2022-09-03T07:42:31;3.28;;;1.52;;
20138;SDS011;10230;51.502;10.800;2022-09-03T07:45:00;1.38;;;1.00;;
20138;SDS011;10230;51.502;10.800;2022-09-03T07:47:29;4.35;;;1.25;;
20138;SDS011;10230;51.502;10.800;2022-09-03T07:49:56;3.03;;;1.23;;
20138;SDS011;10230;51.502;10.800;2022-09-03T07:52:21;4.85;;;1.33;;
20138;SDS011;10230;51.502;10.800;2022-09-03T07:54:47;2.85;;;1.30;;
20138;SDS011;10230;51.502;10.800;2022-09-03T07:57:13;7.28;;;1.30;;
20138;SDS011;10230;51.502;10.800;2022-09-03T07:59:38;2.67;;;1.25;;
20138;SDS011;10230;51.502;10.800;2022-09-03T08:02:07;5.70;;;1.13;;
20138;SDS011;10230;51.502;10.800;2022-09-03T08:04:33;8.85;;;1.30;;
20138;SDS011;10230;51.502;10.800;2022-09-03T08:07:00;3.50;;;1.20;;
20138;SDS011;10230;51.502;10.800;2022-09-03T08:09:25;2.92;;;1.05;;
20138;SDS011;10230;51.502;10.800;2022-09-03T08:11:51;4.70;;;1.35;;
20138;SDS011;10230;51.502;10.800;2022-09-03T08:14:17;5.65;;;1.50;;
20138;SDS011;10230;51.502;10.800;2022-09-03T08:16:45;12.45;;;6.13;;
20138;SDS011;10230;51.502;10.800;2022-09-03T08:19:11;3.97;;;1.50;;
20138;SDS011;10230;51.502;10.800;2022-09-03T08:21:38;5.00;;;2.97;;
20138;SDS011;10230;51.502;10.800;2022-09-03T08:24:08;3.75;;;1.10;;
20138;SDS011;10230;51.502;10.800;2022-09-03T08:26:36;2.83;;;1.23;;
20138;SDS011;10230;51.502;10.800;2022-09-03T08:29:05;4.72;;;2.35;;
20138;SDS011;10230;51.502;10.800;2022-09-03T08:31:31;4.68;;;0.93;;
20138;SDS011;10230;51.502;10.800;2022-09-03T08:33:59;3.50;;;1.10;;
20138;SDS011;10230;51.502;10.800;2022-09-03T08:36:30;3.40;;;1.00;;
20138;SDS011;10230;51.502;10.800;2022-09-03T08:38:58;3.22;;;0.93;;
20138;SDS011;10230;51.502;10.800;2022-09-03T08:49:26;3.90;;;0.65;;
20138;SDS011;10230;51.502;10.800;2022-09-03T08:52:23;3.92;;;0.90;;
20138;SDS011;10230;51.502;10.800;2022-09-03T08:55:42;2.30;;;1.10;;
20138;SDS011;10230;51.502;10.800;2022-09-03T08:57:48;3.25;;;1.10;;
20138;SDS011;10230;51.502;10.800;2022-09-03T09:00:19;1.92;;;1.10;;
20138;SDS011;10230;51.502;10.800;2022-09-03T09:03:06;2.85;;;1.00;;
20138;SDS011;10230;51.502;10.800;2022-09-03T09:06:03;4.53;;;1.33;;
20138;SDS011;10230;51.502;10.800;2022-09-03T09:16:44;3.10;;;0.88;;
20138;SDS011;10230;51.502;10.800;2022-09-03T09:19:29;4.20;;;1.50;;
20138;SDS011;10230;51.502;10.800;2022-09-03T09:24:55;1.55;;;0.70;;
20138;SDS011;10230;51.502;10.800;2022-09-03T09:27:25;3.00;;;1.10;;
20138;SDS011;10230;51.502;10.800;2022-09-03T09:29:52;5.93;;;1.17;;
20138;SDS011;10230;51.502;10.800;2022-09-03T09:32:25;3.35;;;0.88;;
20138;SDS011;10230;51.502;10.800;2022-09-03T09:34:51;5.25;;;1.08;;
20138;SDS011;10230;51.502;10.800;2022-09-03T09:37:18;5.05;;;1.20;;
20138;SDS011;10230;51.502;10.800;2022-09-03T09:39:57;1.98;;;0.90;;
20138;SDS011;10230;51.502;10.800;2022-09-03T09:42:24;5.28;;;1.25;;
20138;SDS011;10230;51.502;10.800;2022-09-03T09:44:51;2.03;;;1.00;;
20138;SDS011;10230;51.502;10.800;2022-09-03T09:50:02;4.95;;;1.60;;
20138;SDS011;10230;51.502;10.800;2022-09-03T09:52:28;3.85;;;0.82;;
20138;SDS011;10230;51.502;10.800;2022-09-03T09:57:54;1.88;;;0.90;;
20138;SDS011;10230;51.502;10.800;2022-09-03T10:00:29;3.28;;;1.30;;
20138;SDS011;10230;51.502;10.800;2022-09-03T10:02:59;2.60;;;1.13;;
20138;SDS011;10230;51.502;10.800;2022-09-03T10:05:26;6.03;;;1.20;;
20138;SDS011;10230;51.502;10.800;2022-09-03T10:08:01;1.90;;;0.85;;
20138;SDS011;10230;51.502;10.800;2022-09-03T10:10:29;6.43;;;0.90;;
20138;SDS011;10230;51.502;10.800;2022-09-03T10:13:03;3.95;;;1.00;;
20138;SDS011;10230;51.502;10.800;2022-09-03T10:15:41;2.40;;;0.80;;
20138;SDS011;10230;51.502;10.800;2022-09-03T10:23:24;4.32;;;1.80;;
20138;SDS011;10230;51.502;10.800;2022-09-03T10:28:31;1.80;;;1.13;;
20138;SDS011;10230;51.502;10.800;2022-09-03T10:31:12;2.53;;;0.63;;
20138;SDS011;10230;51.502;10.800;2022-09-03T10:44:14;1.90;;;0.70;;
20138;SDS011;10230;51.502;10.800;2022-09-03T10:46:56;2.03;;;0.70;;
20138;SDS011;10230;51.502;10.800;2022-09-03T10:49:50;1.75;;;1.00;;
20138;SDS011;10230;51.502;10.800;2022-09-03T10:58:28;2.45;;;0.80;;
20138;SDS011;10230;51.502;10.800;2022-09-03T11:04:01;2.97;;;1.80;;
20138;SDS011;10230;51.502;10.800;2022-09-03T11:06:54;3.90;;;1.77;;
20138;SDS011;10230;51.502;10.800;2022-09-03T11:09:42;3.03;;;0.70;;
20138;SDS011;10230;51.502;10.800;2022-09-03T11:12:25;2.55;;;1.25;;
20138;SDS011;10230;51.502;10.800;2022-09-03T11:15:00;4.63;;;0.70;;
20138;SDS011;10230;51.502;10.800;2022-09-03T11:17:33;2.67;;;0.88;;
20138;SDS011;10230;51.502;10.800;2022-09-03T11:22:40;3.55;;;0.70;;
20138;SDS011;10230;51.502;10.800;2022-09-03T11:25:09;2.03;;;0.90;;
20138;SDS011;10230;51.502;10.800;2022-09-03T12:00:59;4.50;;;1.58;;
20138;SDS011;10230;51.502;10.800;2022-09-03T12:03:29;2.70;;;0.70;;
20138;SDS011;10230;51.502;10.800;2022-09-03T12:08:45;3.72;;;1.38;;
20138;SDS011;10230;51.502;10.800;2022-09-03T12:14:39;4.13;;;1.42;;
20138;SDS011;10230;51.502;10.800;2022-09-03T12:17:14;3.45;;;2.38;;
20138;SDS011;10230;51.502;10.800;2022-09-03T12:19:48;2.90;;;1.48;;
20138;SDS011;10230;51.502;10.800;2022-09-03T12:22:16;2.88;;;2.50;;
20138;SDS011;10230;51.502;10.800;2022-09-03T12:24:42;3.65;;;1.35;;
20138;SDS011;10230;51.502;10.800;2022-09-03T12:27:14;2.65;;;1.70;;
20138;SDS011;10230;51.502;10.800;2022-09-03T12:29:49;8.27;;;1.83;;
20138;SDS011;10230;51.502;10.800;2022-09-03T12:34:42;4.93;;;1.65;;
20138;SDS011;10230;51.502;10.800;2022-09-03T12:37:19;4.90;;;1.50;;
20138;SDS011;10230;51.502;10.800;2022-09-03T12:39:52;4.22;;;2.58;;
20138;SDS011;10230;51.502;10.800;2022-09-03T12:42:21;3.97;;;1.60;;
20138;SDS011;10230;51.502;10.800;2022-09-03T12:44:48;2.47;;;0.70;;
20138;SDS011;10230;51.502;10.800;2022-09-03T12:47:15;1.92;;;0.80;;
20138;SDS011;10230;51.502;10.800;2022-09-03T12:49:49;1.85;;;0.80;;
20138;SDS011;10230;51.502;10.800;2022-09-03T12:54:50;5.57;;;0.88;;
20138;SDS011;10230;51.502;10.800;2022-09-03T12:57:19;3.90;;;0.80;;
20138;SDS011;10230;51.502;10.800;2022-09-03T12:59:46;1.73;;;1.15;;
20138;SDS011;10230;51.502;10.800;2022-09-03T13:02:15;6.38;;;1.70;;
20138;SDS011;10230;51.502;10.800;2022-09-03T13:04:43;1.45;;;1.13;;
20138;SDS011;10230;51.502;10.800;2022-09-03T13:07:18;3.03;;;1.10;;
20138;SDS011;10230;51.502;10.800;2022-09-03T13:09:47;1.77;;;1.05;;
20138;SDS011;10230;51.502;10.800;2022-09-03T13:12:27;2.45;;;1.10;;
20138;SDS011;10230;51.502;10.800;2022-09-03T13:14:54;2.63;;;0.90;;
20138;SDS011;10230;51.502;10.800;2022-09-03T13:17:29;3.60;;;1.15;;
20138;SDS011;10230;51.502;10.800;2022-09-03T13:20:02;7.68;;;1.10;;
20138;SDS011;10230;51.502;10.800;2022-09-03T13:22:49;8.90;;;1.60;;
20138;SDS011;10230;51.502;10.800;2022-09-03T13:25:34;3.03;;;1.60;;
20138;SDS011;10230;51.502;10.800;2022-09-03T13:33:34;1.98;;;1.10;;
20138;SDS011;10230;51.502;10.800;2022-09-03T13:43:50;4.10;;;1.70;;
20138;SDS011;10230;51.502;10.800;2022-09-03T13:49:10;3.78;;;1.00;;
20138;SDS011;10230;51.502;10.800;2022-09-03T13:51:58;2.25;;;0.80;;
20138;SDS011;10230;51.502;10.800;2022-09-03T13:54:29;2.38;;;0.93;;
20138;SDS011;10230;51.502;10.800;2022-09-03T13:59:51;4.93;;;1.00;;
20138;SDS011;10230;51.502;10.800;2022-09-03T14:10:00;3.97;;;1.00;;
20138;SDS011;10230;51.502;10.800;2022-09-03T14:12:44;3.88;;;1.30;;
20138;SDS011;10230;51.502;10.800;2022-09-03T14:15:23;1.80;;;1.10;;
20138;SDS011;10230;51.502;10.800;2022-09-03T14:18:55;2.97;;;0.90;;
20138;SDS011;10230;51.502;10.800;2022-09-03T14:20:59;1.48;;;1.15;;
20138;SDS011;10230;51.502;10.800;2022-09-03T14:23:30;2.53;;;1.45;;
20138;SDS011;10230;51.502;10.800;2022-09-03T14:25:59;4.55;;;1.15;;
20138;SDS011;10230;51.502;10.800;2022-09-03T14:28:34;3.92;;;1.45;;
20138;SDS011;10230;51.502;10.800;2022-09-03T14:52:01;2.75;;;1.10;;
20138;SDS011;10230;51.502;10.800;2022-09-03T15:07:28;4.57;;;1.33;;
20138;SDS011;10230;51.502;10.800;2022-09-03T15:18:48;4.78;;;1.20;;
20138;SDS011;10230;51.502;10.800;2022-09-03T15:34:18;3.58;;;1.65;;
20138;SDS011;10230;51.502;10.800;2022-09-03T15:37:22;4.97;;;1.42;;
20138;SDS011;10230;51.502;10.800;2022-09-03T15:39:56;3.25;;;1.63;;
20138;SDS011;10230;51.502;10.800;2022-09-03T15:42:30;5.05;;;1.75;;
20138;SDS011;10230;51.502;10.800;2022-09-03T15:45:01;4.50;;;1.45;;
20138;SDS011;10230;51.502;10.800;2022-09-03T15:47:31;5.97;;;1.83;;
20138;SDS011;10230;51.502;10.800;2022-09-03T15:55:24;3.40;;;1.42;;
20138;SDS011;10230;51.502;10.800;2022-09-03T16:00:40;5.55;;;1.42;;
20138;SDS011;10230;51.502;10.800;2022-09-03T16:03:18;3.45;;;1.38;;
20138;SDS011;10230;51.502;10.800;2022-09-03T16:05:59;2.22;;;1.30;;
20138;SDS011;10230;51.502;10.800;2022-09-03T16:08:43;5.03;;;1.40;;
20138;SDS011;10230;51.502;10.800;2022-09-03T16:11:16;2.90;;;2.10;;
20138;SDS011;10230;51.502;10.800;2022-09-03T16:14:19;2.05;;;1.50;;
20138;SDS011;10230;51.502;10.800;2022-09-03T16:19:55;2.60;;;1.58;;
20138;SDS011;10230;51.502;10.800;2022-09-03T16:25:30;4.45;;;1.98;;
20138;SDS011;10230;51.502;10.800;2022-09-03T16:28:03;7.68;;;2.80;;
20138;SDS011;10230;51.502;10.800;2022-09-03T16:40:41;3.90;;;1.50;;
20138;SDS011;10230;51.502;10.800;2022-09-03T16:46:28;3.05;;;1.60;;
20138;SDS011;10230;51.502;10.800;2022-09-03T16:49:11;2.08;;;1.40;;
20138;SDS011;10230;51.502;10.800;2022-09-03T17:11:02;3.75;;;1.90;;
20138;SDS011;10230;51.502;10.800;2022-09-03T17:24:39;3.35;;;2.20;;
20138;SDS011;10230;51.502;10.800;2022-09-03T17:35:30;5.43;;;1.95;;
20138;SDS011;10230;51.502;10.800;2022-09-03T17:43:31;4.63;;;2.08;;
20138;SDS011;10230;51.502;10.800;2022-09-03T17:46:10;5.57;;;2.80;;
20138;SDS011;10230;51.502;10.800;2022-09-03T17:53:53;5.13;;;2.33;;
20138;SDS011;10230;51.502;10.800;2022-09-03T17:56:25;5.50;;;2.17;;
20138;SDS011;10230;51.502;10.800;2022-09-03T17:59:04;4.03;;;2.70;;
20138;SDS011;10230;51.502;10.800;2022-09-03T18:01:35;6.28;;;2.25;;
20138;SDS011;10230;51.502;10.800;2022-09-03T18:04:16;6.05;;;2.35;;
20138;SDS011;10230;51.502;10.800;2022-09-03T18:07:00;7.03;;;2.30;;
20138;SDS011;10230;51.502;10.800;2022-09-03T18:14:52;6.65;;;2.35;;
20138;SDS011;10230;51.502;10.800;2022-09-03T18:20:06;4.63;;;2.35;;
20138;SDS011;10230;51.502;10.800;2022-09-03T18:25:42;5.50;;;3.08;;
20138;SDS011;10230;51.502;10.800;2022-09-03T18:28:31;5.88;;;2.38;;
20138;SDS011;10230;51.502;10.800;2022-09-03T18:31:18;4.70;;;1.90;;
20138;SDS011;10230;51.502;10.800;2022-09-03T18:34:03;4.03;;;1.63;;
20138;SDS011;10230;51.502;10.800;2022-09-03T18:36:47;3.15;;;1.48;;
20138;SDS011;10230;51.502;10.800;2022-09-03T18:39:32;2.63;;;1.33;;
20138;SDS011;10230;51.502;10.800;2022-09-03T18:56:51;3.42;;;1.20;;
20138;SDS011;10230;51.502;10.800;2022-09-03T19:08:24;3.75;;;1.60;;
20138;SDS011;10230;51.502;10.800;2022-09-03T19:20:30;3.85;;;1.80;;
20138;SDS011;10230;51.502;10.800;2022-09-03T19:23:18;7.65;;;2.45;;
20138;SDS011;10230;51.502;10.800;2022-09-03T19:26:47;4.75;;;2.17;;
20138;SDS011;10230;51.502;10.800;2022-09-03T19:29:14;4.25;;;1.98;;
20138;SDS011;10230;51.502;10.800;2022-09-03T19:32:06;2.50;;;2.30;;
20138;SDS011;10230;51.502;10.800;2022-09-03T19:37:50;4.10;;;3.10;;
20138;SDS011;10230;51.502;10.800;2022-09-03T19:46:35;4.13;;;1.98;;
20138;SDS011;10230;51.502;10.800;2022-09-03T19:49:30;2.00;;;1.52;;
20138;SDS011;10230;51.502;10.800;2022-09-03T19:52:22;2.28;;;1.67;;
20138;SDS011;10230;51.502;10.800;2022-09-03T19:55:09;2.92;;;1.50;;
20138;SDS011;10230;51.502;10.800;2022-09-03T19:57:56;3.42;;;1.70;;
20138;SDS011;10230;51.502;10.800;2022-09-03T20:00:42;3.95;;;2.60;;
20138;SDS011;10230;51.502;10.800;2022-09-03T20:03:27;3.38;;;2.70;;
20138;SDS011;10230;51.502;10.800;2022-09-03T20:06:12;3.95;;;2.53;;
20138;SDS011;10230;51.502;10.800;2022-09-03T20:09:02;2.63;;;1.88;;
20138;SDS011;10230;51.502;10.800;2022-09-03T20:11:48;3.85;;;1.98;;
20138;SDS011;10230;51.502;10.800;2022-09-03T20:14:14;5.97;;;2.45;;
20138;SDS011;10230;51.502;10.800;2022-09-03T20:19:17;3.95;;;2.50;;
20138;SDS011;10230;51.502;10.800;2022-09-03T20:32:02;4.45;;;2.10;;
20138;SDS011;10230;51.502;10.800;2022-09-03T20:37:40;3.17;;;1.90;;
20138;SDS011;10230;51.502;10.800;2022-09-03T20:52:35;4.32;;;2.10;;
20138;SDS011;10230;51.502;10.800;2022-09-03T20:57:41;3.28;;;2.40;;
20138;SDS011;10230;51.502;10.800;2022-09-03T21:00:13;3.33;;;2.17;;
20138;SDS011;10230;51.502;10.800;2022-09-03T21:05:15;2.55;;;1.60;;
20138;SDS011;10230;51.502;10.800;2022-09-03T21:10:15;5.68;;;2.05;;
20138;SDS011;10230;51.502;10.800;2022-09-03T21:12:50;4.30;;;1.80;;
20138;SDS011;10230;51.502;10.800;2022-09-03T21:15:30;3.72;;;1.90;;
20138;SDS011;10230;51.502;10.800;2022-09-03T21:20:38;2.20;;;2.00;;
20138;SDS011;10230;51.502;10.800;2022-09-03T21:25:41;2.88;;;1.92;;
20138;SDS011;10230;51.502;10.800;2022-09-03T21:28:23;5.65;;;2.20;;
20138;SDS011;10230;51.502;10.800;2022-09-03T21:30:53;4.78;;;2.08;;
20138;SDS011;10230;51.502;10.800;2022-09-03T21:33:30;5.75;;;2.95;;
20138;SDS011;10230;51.502;10.800;2022-09-03T21:36:13;6.75;;;2.80;;
20138;SDS011;10230;51.502;10.800;2022-09-03T21:38:42;6.18;;;3.22;;
20138;SDS011;10230;51.502;10.800;2022-09-03T21:43:49;4.80;;;3.28;;
20138;SDS011;10230;51.502;10.800;2022-09-03T21:46:19;6.40;;;3.03;;
20138;SDS011;10230;51.502;10.800;2022-09-03T21:48:57;7.93;;;3.55;;
20138;SDS011;10230;51.502;10.800;2022-09-03T21:54:09;6.75;;;3.30;;